sensor_id;sensor_type;location;lat;lon;timestamp;pressure;altitude;pressure_sealevel;temperature;humidity
66486;BME280;53303;47.476;8.084;2023-06-14T00:00:44;94750.41;;;23.65;30.40
66486;BME280;53303;47.476;8.084;2023-06-14T00:03:10;94757.28;;;23.64;30.71
66486;BME280;53303;47.476;8.084;2023-06-14T00:05:39;94751.91;;;23.66;30.58
66486;BME280;53303;47.476;8.084;2023-06-14T00:08:09;94758.22;;;23.67;30.55
66486;BME280;53303;47.476;8.084;2023-06-14T00:10:36;94749.66;;;23.65;30.40
66486;BME280;53303;47.476;8.084;2023-06-14T00:13:02;94752.06;;;23.61;30.44
66486;BME280;53303;47.476;8.084;2023-06-14T00:15:32;94750.97;;;23.64;30.32
66486;BME280;53303;47.476;8.084;2023-06-14T00:18:00;94753.53;;;23.62;30.25
66486;BME280;53303;47.476;8.084;2023-06-14T00:20:27;94747.22;;;23.61;30.33
66486;BME280;53303;47.476;8.084;2023-06-14T00:22:53;94748.13;;;23.56;30.16
66486;BME280;53303;47.476;8.084;2023-06-14T00:25:20;94742.00;;;23.57;30.42
66486;BME280;53303;47.476;8.084;2023-06-14T00:27:45;94745.94;;;23.62;30.29
66486;BME280;53303;47.476;8.084;2023-06-14T00:30:11;94750.00;;;23.61;30.02
66486;BME280;53303;47.476;8.084;2023-06-14T00:32:37;94740.91;;;23.61;30.14
66486;BME280;53303;47.476;8.084;2023-06-14T00:35:02;94735.31;;;23.53;29.92
66486;BME280;53303;47.476;8.084;2023-06-14T00:37:31;94731.41;;;23.56;29.99
66486;BME280;53303;47.476;8.084;2023-06-14T00:39:56;94745.53;;;23.58;29.75
66486;BME280;53303;47.476;8.084;2023-06-14T00:42:25;94749.06;;;23.59;30.02
66486;BME280;53303;47.476;8.084;2023-06-14T00:44:50;94746.47;;;23.61;29.84
66486;BME280;53303;47.476;8.084;2023-06-14T00:47:16;94737.75;;;23.56;30.04
66486;BME280;53303;47.476;8.084;2023-06-14T00:49:45;94750.16;;;23.55;29.91
66486;BME280;53303;47.476;8.084;2023-06-14T00:52:11;94753.16;;;23.57;29.91
66486;BME280;53303;47.476;8.084;2023-06-14T00:54:38;94740.13;;;23.52;29.82
66486;BME280;53303;47.476;8.084;2023-06-14T00:57:03;94748.66;;;23.54;29.82
66486;BME280;53303;47.476;8.084;2023-06-14T00:59:29;94741.63;;;23.53;29.76
66486;BME280;53303;47.476;8.084;2023-06-14T01:01:55;94745.88;;;23.54;29.62
66486;BME280;53303;47.476;8.084;2023-06-14T01:04:20;94746.66;;;23.55;29.63
66486;BME280;53303;47.476;8.084;2023-06-14T01:07:07;94745.69;;;23.52;29.68
66486;BME280;53303;47.476;8.084;2023-06-14T01:12:52;94748.28;;;23.50;29.62
66486;BME280;53303;47.476;8.084;2023-06-14T01:15:20;94756.09;;;23.52;29.58
66486;BME280;53303;47.476;8.084;2023-06-14T01:17:49;94753.84;;;23.50;29.57
66486;BME280;53303;47.476;8.084;2023-06-14T01:20:17;94754.56;;;23.51;29.64
66486;BME280;53303;47.476;8.084;2023-06-14T01:22:52;94752.91;;;23.48;29.41
66486;BME280;53303;47.476;8.084;2023-06-14T01:25:21;94751.59;;;23.49;29.72
66486;BME280;53303;47.476;8.084;2023-06-14T01:27:53;94752.91;;;23.48;29.64
66486;BME280;53303;47.476;8.084;2023-06-14T01:30:20;94751.59;;;23.49;29.45
66486;BME280;53303;47.476;8.084;2023-06-14T01:32:47;94742.50;;;23.48;29.41
66486;BME280;53303;47.476;8.084;2023-06-14T01:35:14;94739.34;;;23.44;29.41
66486;BME280;53303;47.476;8.084;2023-06-14T01:37:40;94742.31;;;23.46;29.10
66486;BME280;53303;47.476;8.084;2023-06-14T01:40:07;94744.56;;;23.48;29.41
66486;BME280;53303;47.476;8.084;2023-06-14T01:42:37;94733.53;;;23.42;29.46
66486;BME280;53303;47.476;8.084;2023-06-14T01:45:07;94744.91;;;23.44;29.40
66486;BME280;53303;47.476;8.084;2023-06-14T01:47:33;94737.84;;;23.43;29.23
66486;BME280;53303;47.476;8.084;2023-06-14T01:50:00;94738.03;;;23.45;29.34
66486;BME280;53303;47.476;8.084;2023-06-14T01:52:25;94735.78;;;23.44;29.25
66486;BME280;53303;47.476;8.084;2023-06-14T01:54:51;94732.25;;;23.43;29.47
66486;BME280;53303;47.476;8.084;2023-06-14T01:57:19;94733.53;;;23.42;29.46
66486;BME280;53303;47.476;8.084;2023-06-14T01:59:45;94728.56;;;23.41;29.25
66486;BME280;53303;47.476;8.084;2023-06-14T02:02:14;94719.78;;;23.36;29.27
66486;BME280;53303;47.476;8.084;2023-06-14T02:04:40;94737.09;;;23.43;29.25
66486;BME280;53303;47.476;8.084;2023-06-14T02:07:05;94731.34;;;23.41;29.27
66486;BME280;53303;47.476;8.084;2023-06-14T02:09:31;94738.38;;;23.42;29.22
66486;BME280;53303;47.476;8.084;2023-06-14T02:11:56;94741.69;;;23.40;29.31
66486;BME280;53303;47.476;8.084;2023-06-14T02:14:22;94732.41;;;23.37;29.27
66486;BME280;53303;47.476;8.084;2023-06-14T02:16:48;94741.69;;;23.40;29.35
66486;BME280;53303;47.476;8.084;2023-06-14T02:19:18;94744.50;;;23.40;29.35
66486;BME280;53303;47.476;8.084;2023-06-14T02:21:44;94743.00;;;23.39;29.18
66486;BME280;53303;47.476;8.084;2023-06-14T02:24:09;94740.22;;;23.39;29.14
66486;BME280;53303;47.476;8.084;2023-06-14T02:26:35;94744.09;;;23.36;29.13
66486;BME280;53303;47.476;8.084;2023-06-14T02:29:03;94746.34;;;23.37;29.31
66486;BME280;53303;47.476;8.084;2023-06-14T02:31:28;94742.06;;;23.36;28.90
66486;BME280;53303;47.476;8.084;2023-06-14T02:33:54;94744.09;;;23.36;29.30
66486;BME280;53303;47.476;8.084;2023-06-14T02:36:19;94740.03;;;23.37;29.20
66486;BME280;53303;47.476;8.084;2023-06-14T02:38:45;94738.88;;;23.32;29.07
66486;BME280;53303;47.476;8.084;2023-06-14T02:41:12;94736.47;;;23.36;29.07
66486;BME280;53303;47.476;8.084;2023-06-14T02:43:39;94739.81;;;23.35;29.03
66486;BME280;53303;47.476;8.084;2023-06-14T02:46:09;94739.63;;;23.33;29.00
66486;BME280;53303;47.476;8.084;2023-06-14T02:48:34;94740.56;;;23.35;29.04
66486;BME280;53303;47.476;8.084;2023-06-14T02:51:00;94742.41;;;23.33;28.71
66486;BME280;53303;47.476;8.084;2023-06-14T02:53:25;94743.16;;;23.33;29.01
66486;BME280;53303;47.476;8.084;2023-06-14T02:55:51;94739.63;;;23.33;29.09
66486;BME280;53303;47.476;8.084;2023-06-14T02:58:20;94745.00;;;23.31;29.08
66486;BME280;53303;47.476;8.084;2023-06-14T03:00:48;94739.63;;;23.33;29.03
66486;BME280;53303;47.476;8.084;2023-06-14T03:03:14;94749.28;;;23.32;28.92
66486;BME280;53303;47.476;8.084;2023-06-14T03:05:44;94746.50;;;23.32;28.92
66486;BME280;53303;47.476;8.084;2023-06-14T03:08:13;94749.28;;;23.32;28.99
66486;BME280;53303;47.476;8.084;2023-06-14T03:10:48;94750.56;;;23.31;28.93
66486;BME280;53303;47.476;8.084;2023-06-14T03:13:17;94751.84;;;23.30;28.96
66486;BME280;53303;47.476;8.084;2023-06-14T03:15:45;94756.00;;;23.15;29.20
66486;BME280;53303;47.476;8.084;2023-06-14T03:18:11;94756.81;;;23.24;29.07
66486;BME280;53303;47.476;8.084;2023-06-14T03:20:38;94756.25;;;23.25;29.05
66486;BME280;53303;47.476;8.084;2023-06-14T03:23:03;94749.00;;;23.22;29.10
66486;BME280;53303;47.476;8.084;2023-06-14T03:25:30;94754.75;;;23.24;29.04
66486;BME280;53303;47.476;8.084;2023-06-14T03:27:57;94761.84;;;23.25;28.96
66486;BME280;53303;47.476;8.084;2023-06-14T03:30:24;94763.88;;;23.25;28.87
66486;BME280;53303;47.476;8.084;2023-06-14T03:32:49;94764.22;;;23.21;28.97
66486;BME280;53303;47.476;8.084;2023-06-14T03:35:18;94765.16;;;23.24;28.87
66486;BME280;53303;47.476;8.084;2023-06-14T03:37:44;94773.50;;;23.24;29.04
66486;BME280;53303;47.476;8.084;2023-06-14T03:40:12;94768.81;;;23.18;29.04
66486;BME280;53303;47.476;8.084;2023-06-14T03:42:38;94767.75;;;23.22;29.05
66486;BME280;53303;47.476;8.084;2023-06-14T03:45:04;94770.53;;;23.22;28.89
66486;BME280;53303;47.476;8.084;2023-06-14T03:47:30;94771.41;;;23.16;28.90
66486;BME280;53303;47.476;8.084;2023-06-14T03:49:55;94779.97;;;23.18;28.96
66486;BME280;53303;47.476;8.084;2023-06-14T03:52:23;94776.97;;;23.16;29.04
66486;BME280;53303;47.476;8.084;2023-06-14T03:54:50;94784.97;;;23.20;29.00
66486;BME280;53303;47.476;8.084;2023-06-14T03:57:16;94785.72;;;23.21;29.06
66486;BME280;53303;47.476;8.084;2023-06-14T03:59:41;94780.50;;;23.17;28.80
66486;BME280;53303;47.476;8.084;2023-06-14T04:02:07;94783.09;;;23.15;29.16
66486;BME280;53303;47.476;8.084;2023-06-14T04:04:36;94790.34;;;23.18;29.24
66486;BME280;53303;47.476;8.084;2023-06-14T04:07:02;94787.72;;;23.12;29.44
66486;BME280;53303;47.476;8.084;2023-06-14T04:09:29;94792.16;;;23.15;29.43
66486;BME280;53303;47.476;8.084;2023-06-14T04:11:55;94803.31;;;23.15;29.69
66486;BME280;53303;47.476;8.084;2023-06-14T04:14:21;94796.25;;;23.14;29.68
66486;BME280;53303;47.476;8.084;2023-06-14T04:16:48;94799.03;;;23.14;29.68
66486;BME280;53303;47.476;8.084;2023-06-14T04:19:18;94791.56;;;23.09;29.52
66486;BME280;53303;47.476;8.084;2023-06-14T04:21:46;94808.13;;;23.15;29.74
66486;BME280;53303;47.476;8.084;2023-06-14T04:24:12;94801.44;;;23.10;29.79
66486;BME280;53303;47.476;8.084;2023-06-14T04:26:42;94808.13;;;23.15;29.72
66486;BME280;53303;47.476;8.084;2023-06-14T04:29:10;94814.44;;;23.15;29.81
66486;BME280;53303;47.476;8.084;2023-06-14T04:31:48;94812.22;;;23.14;29.88
66486;BME280;53303;47.476;8.084;2023-06-14T04:34:14;94801.44;;;23.10;29.63
66486;BME280;53303;47.476;8.084;2023-06-14T04:36:43;94810.91;;;23.15;29.99
66486;BME280;53303;47.476;8.084;2023-06-14T04:39:17;94812.75;;;23.12;30.02
66486;BME280;53303;47.476;8.084;2023-06-14T04:41:49;94820.00;;;23.15;29.83
66486;BME280;53303;47.476;8.084;2023-06-14T04:44:20;94814.03;;;23.11;30.28
66486;BME280;53303;47.476;8.084;2023-06-14T04:46:46;94816.81;;;23.11;30.28
66486;BME280;53303;47.476;8.084;2023-06-14T04:49:15;94812.97;;;23.14;28.97
66486;BME280;53303;47.476;8.084;2023-06-14T04:51:42;94825.50;;;23.08;28.46
66486;BME280;53303;47.476;8.084;2023-06-14T04:54:08;94829.47;;;22.99;28.29
66486;BME280;53303;47.476;8.084;2023-06-14T04:56:42;94832.78;;;22.76;28.66
66486;BME280;53303;47.476;8.084;2023-06-14T04:59:11;94826.78;;;22.72;28.66
66486;BME280;53303;47.476;8.084;2023-06-14T05:01:37;94833.78;;;22.66;28.64
66486;BME280;53303;47.476;8.084;2023-06-14T05:04:03;94837.84;;;22.65;28.65
66486;BME280;53303;47.476;8.084;2023-06-14T05:06:28;94839.25;;;22.58;28.70
66486;BME280;53303;47.476;8.084;2023-06-14T05:08:54;94836.91;;;22.49;29.01
66486;BME280;53303;47.476;8.084;2023-06-14T05:11:20;94837.97;;;22.46;29.07
66486;BME280;53303;47.476;8.084;2023-06-14T05:13:45;94845.59;;;22.45;29.26
66486;BME280;53303;47.476;8.084;2023-06-14T05:16:12;94844.63;;;22.42;29.40
66486;BME280;53303;47.476;8.084;2023-06-14T05:18:37;94836.19;;;22.35;29.38
66486;BME280;53303;47.476;8.084;2023-06-14T05:21:03;94844.00;;;22.36;29.63
66486;BME280;53303;47.476;8.084;2023-06-14T05:23:32;94841.75;;;22.35;29.73
66486;BME280;53303;47.476;8.084;2023-06-14T05:25:57;94840.59;;;22.30;29.83
66486;BME280;53303;47.476;8.084;2023-06-14T05:28:23;94834.56;;;22.26;29.82
66486;BME280;53303;47.476;8.084;2023-06-14T05:30:49;94835.88;;;22.25;30.18
66486;BME280;53303;47.476;8.084;2023-06-14T05:33:15;94836.41;;;22.23;30.56
66486;BME280;53303;47.476;8.084;2023-06-14T05:35:40;94844.72;;;22.23;30.95
66486;BME280;53303;47.476;8.084;2023-06-14T05:38:05;94847.09;;;22.19;31.02
66486;BME280;53303;47.476;8.084;2023-06-14T05:40:32;94847.84;;;22.20;30.59
66486;BME280;53303;47.476;8.084;2023-06-14T05:42:58;94843.56;;;22.19;30.63
66486;BME280;53303;47.476;8.084;2023-06-14T05:45:23;94850.94;;;22.16;30.57
66486;BME280;53303;47.476;8.084;2023-06-14T05:47:49;94848.47;;;22.13;30.34
66486;BME280;53303;47.476;8.084;2023-06-14T05:50:17;94841.53;;;22.06;30.33
66486;BME280;53303;47.476;8.084;2023-06-14T05:52:45;94842.50;;;22.09;30.63
66486;BME280;53303;47.476;8.084;2023-06-14T05:55:10;94845.28;;;22.09;30.82
66486;BME280;53303;47.476;8.084;2023-06-14T05:57:37;94856.41;;;22.09;30.80
66486;BME280;53303;47.476;8.084;2023-06-14T06:00:03;94858.84;;;22.12;31.00
66486;BME280;53303;47.476;8.084;2023-06-14T06:02:41;94857.34;;;22.11;31.17
66486;BME280;53303;47.476;8.084;2023-06-14T06:05:08;94861.97;;;22.09;30.79
66486;BME280;53303;47.476;8.084;2023-06-14T06:07:34;94861.19;;;22.08;30.09
66486;BME280;53303;47.476;8.084;2023-06-14T06:09:59;94855.97;;;22.04;30.19
66486;BME280;53303;47.476;8.084;2023-06-14T06:12:25;94856.50;;;22.03;30.14
66486;BME280;53303;47.476;8.084;2023-06-14T06:14:50;94846.88;;;22.04;29.81
66486;BME280;53303;47.476;8.084;2023-06-14T06:17:16;94859.25;;;22.03;30.22
66486;BME280;53303;47.476;8.084;2023-06-14T06:19:41;94863.03;;;22.05;30.52
66486;BME280;53303;47.476;8.084;2023-06-14T06:22:06;94864.75;;;22.09;30.09
66486;BME280;53303;47.476;8.084;2023-06-14T06:24:33;94860.56;;;22.02;29.88
66486;BME280;53303;47.476;8.084;2023-06-14T06:27:03;94861.09;;;22.00;29.73
66486;BME280;53303;47.476;8.084;2023-06-14T06:29:28;94881.63;;;22.11;29.96
66486;BME280;53303;47.476;8.084;2023-06-14T06:31:54;94885.66;;;22.10;30.01
66486;BME280;53303;47.476;8.084;2023-06-14T06:34:23;94877.88;;;22.08;29.87
66486;BME280;53303;47.476;8.084;2023-06-14T06:36:53;94877.13;;;22.08;29.69
66486;BME280;53303;47.476;8.084;2023-06-14T06:39:19;94875.53;;;22.12;29.78
66486;BME280;53303;47.476;8.084;2023-06-14T06:41:46;94874.56;;;22.10;29.19
66486;BME280;53303;47.476;8.084;2023-06-14T06:44:12;94878.06;;;22.10;29.15
66486;BME280;53303;47.476;8.084;2023-06-14T06:46:40;94889.19;;;22.10;29.17
66486;BME280;53303;47.476;8.084;2023-06-14T06:49:09;94885.88;;;22.12;28.95
66486;BME280;53303;47.476;8.084;2023-06-14T06:51:41;94890.16;;;22.13;28.93
66486;BME280;53303;47.476;8.084;2023-06-14T06:54:07;94887.91;;;22.11;29.02
66486;BME280;53303;47.476;8.084;2023-06-14T06:56:36;94891.13;;;22.15;29.00
66486;BME280;53303;47.476;8.084;2023-06-14T06:59:01;94897.44;;;22.16;28.92
66486;BME280;53303;47.476;8.084;2023-06-14T07:01:26;94894.97;;;22.12;28.96
66486;BME280;53303;47.476;8.084;2023-06-14T07:03:57;94906.50;;;22.16;29.27
66486;BME280;53303;47.476;8.084;2023-06-14T07:06:24;94915.59;;;22.17;28.94
66486;BME280;53303;47.476;8.084;2023-06-14T07:08:52;94910.03;;;22.17;28.90
66486;BME280;53303;47.476;8.084;2023-06-14T07:11:17;94889.19;;;22.10;29.02
66486;BME280;53303;47.476;8.084;2023-06-14T07:13:48;94903.00;;;22.16;29.23
66486;BME280;53303;47.476;8.084;2023-06-14T07:16:15;94902.75;;;22.14;29.07
66486;BME280;53303;47.476;8.084;2023-06-14T07:18:43;94905.00;;;22.15;29.41
66486;BME280;53303;47.476;8.084;2023-06-14T07:21:09;94910.78;;;22.17;29.30
66486;BME280;53303;47.476;8.084;2023-06-14T07:23:34;94903.53;;;22.14;29.34
66486;BME280;53303;47.476;8.084;2023-06-14T07:26:02;94910.78;;;22.17;29.23
66486;BME280;53303;47.476;8.084;2023-06-14T07:28:28;94907.25;;;22.17;29.21
66486;BME280;53303;47.476;8.084;2023-06-14T07:30:53;94903.00;;;22.16;29.00
66486;BME280;53303;47.476;8.084;2023-06-14T07:33:19;94911.75;;;22.20;29.17
66486;BME280;53303;47.476;8.084;2023-06-14T07:35:44;94917.84;;;22.18;29.35
66486;BME280;53303;47.476;8.084;2023-06-14T07:38:13;94904.47;;;22.17;29.23
66486;BME280;53303;47.476;8.084;2023-06-14T07:40:41;94915.28;;;22.20;29.26
66486;BME280;53303;47.476;8.084;2023-06-14T07:43:06;94923.81;;;22.22;29.35
66486;BME280;53303;47.476;8.084;2023-06-14T07:45:31;94902.44;;;22.17;29.23
66486;BME280;53303;47.476;8.084;2023-06-14T07:47:57;94908.66;;;22.23;29.21
66486;BME280;53303;47.476;8.084;2023-06-14T07:50:23;94910.13;;;22.24;29.26
66486;BME280;53303;47.476;8.084;2023-06-14T07:52:50;94913.19;;;22.27;29.58
66486;BME280;53303;47.476;8.084;2023-06-14T07:55:16;94912.66;;;22.28;29.58
66486;BME280;53303;47.476;8.084;2023-06-14T07:57:44;94898.38;;;22.18;29.18
66486;BME280;53303;47.476;8.084;2023-06-14T08:00:10;94907.81;;;22.29;29.07
66486;BME280;53303;47.476;8.084;2023-06-14T08:02:41;94906.09;;;22.25;28.90
66486;BME280;53303;47.476;8.084;2023-06-14T08:05:07;94900.53;;;22.25;29.49
66486;BME280;53303;47.476;8.084;2023-06-14T08:07:33;94906.00;;;22.31;29.75
66486;BME280;53303;47.476;8.084;2023-06-14T08:10:01;94904.50;;;22.30;29.80
66486;BME280;53303;47.476;8.084;2023-06-14T08:12:29;94901.72;;;22.30;29.78
66486;BME280;53303;47.476;8.084;2023-06-14T08:14:54;94897.25;;;22.27;29.58
66486;BME280;53303;47.476;8.084;2023-06-14T08:17:22;94890.78;;;22.19;29.82
66486;BME280;53303;47.476;8.084;2023-06-14T08:19:48;94901.72;;;22.30;29.81
66486;BME280;53303;47.476;8.084;2023-06-14T08:22:13;94909.22;;;22.35;29.49
66486;BME280;53303;47.476;8.084;2023-06-14T08:24:38;94912.00;;;22.35;29.75
66486;BME280;53303;47.476;8.084;2023-06-14T08:27:08;94908.13;;;22.38;29.58
66486;BME280;53303;47.476;8.084;2023-06-14T08:29:34;94912.41;;;22.39;28.91
66486;BME280;53303;47.476;8.084;2023-06-14T08:31:59;94915.19;;;22.39;28.84
66486;BME280;53303;47.476;8.084;2023-06-14T08:34:25;94922.25;;;22.40;29.11
66486;BME280;53303;47.476;8.084;2023-06-14T08:36:51;94914.47;;;22.39;29.35
66486;BME280;53303;47.476;8.084;2023-06-14T08:39:16;94919.25;;;22.38;29.45
66486;BME280;53303;47.476;8.084;2023-06-14T08:41:44;94921.91;;;22.44;29.55
66486;BME280;53303;47.476;8.084;2023-06-14T08:44:11;94922.69;;;22.45;29.81
66486;BME280;53303;47.476;8.084;2023-06-14T08:46:37;94919.38;;;22.46;29.75
66486;BME280;53303;47.476;8.084;2023-06-14T08:49:04;94929.19;;;22.47;29.95
66486;BME280;53303;47.476;8.084;2023-06-14T08:51:37;94925.13;;;22.48;30.25
66486;BME280;53303;47.476;8.084;2023-06-14T08:54:03;94922.56;;;22.50;30.39
66486;BME280;53303;47.476;8.084;2023-06-14T08:56:32;94921.81;;;22.50;30.34
66486;BME280;53303;47.476;8.084;2023-06-14T08:58:59;94931.84;;;22.53;30.45
66486;BME280;53303;47.476;8.084;2023-06-14T09:01:33;94920.84;;;22.47;30.47
66486;BME280;53303;47.476;8.084;2023-06-14T09:04:01;94921.81;;;22.50;30.33
66486;BME280;53303;47.476;8.084;2023-06-14T09:06:27;94929.59;;;22.51;30.98
66486;BME280;53303;47.476;8.084;2023-06-14T09:08:57;94915.69;;;22.51;30.74
66486;BME280;53303;47.476;8.084;2023-06-14T09:11:23;94930.25;;;22.57;30.86
66486;BME280;53303;47.476;8.084;2023-06-14T09:13:49;94932.50;;;22.59;30.95
66486;BME280;53303;47.476;8.084;2023-06-14T09:16:17;94932.50;;;22.59;31.18
66486;BME280;53303;47.476;8.084;2023-06-14T09:18:46;94931.19;;;22.60;31.06
66486;BME280;53303;47.476;8.084;2023-06-14T09:21:16;94929.94;;;22.61;31.23
66486;BME280;53303;47.476;8.084;2023-06-14T09:23:43;94929.94;;;22.61;31.35
66486;BME280;53303;47.476;8.084;2023-06-14T09:26:14;94942.31;;;22.60;31.46
66486;BME280;53303;47.476;8.084;2023-06-14T09:28:47;94921.06;;;22.62;31.38
66486;BME280;53303;47.476;8.084;2023-06-14T09:31:17;94939.22;;;22.63;31.37
66486;BME280;53303;47.476;8.084;2023-06-14T09:33:44;94935.16;;;22.65;31.61
66486;BME280;53303;47.476;8.084;2023-06-14T09:36:18;94939.22;;;22.63;31.72
66486;BME280;53303;47.476;8.084;2023-06-14T09:38:57;94929.19;;;22.60;31.72
66486;BME280;53303;47.476;8.084;2023-06-14T09:41:36;94927.69;;;22.59;31.75
66486;BME280;53303;47.476;8.084;2023-06-14T09:44:04;94918.06;;;22.60;31.98
66486;BME280;53303;47.476;8.084;2023-06-14T09:46:30;94921.47;;;22.67;32.03
66486;BME280;53303;47.476;8.084;2023-06-14T09:48:57;94936.88;;;22.68;32.18
66486;BME280;53303;47.476;8.084;2023-06-14T09:51:23;94921.06;;;22.62;32.11
66486;BME280;53303;47.476;8.084;2023-06-14T09:53:49;94936.13;;;22.67;31.97
66486;BME280;53303;47.476;8.084;2023-06-14T09:56:31;94943.72;;;22.67;32.24
66486;BME280;53303;47.476;8.084;2023-06-14T09:58:59;94929.06;;;22.66;32.37
66486;BME280;53303;47.476;8.084;2023-06-14T10:01:30;94917.75;;;22.64;32.76
66486;BME280;53303;47.476;8.084;2023-06-14T10:04:02;94928.00;;;22.69;32.68
66486;BME280;53303;47.476;8.084;2023-06-14T10:06:30;94928.94;;;22.72;32.71
66486;BME280;53303;47.476;8.084;2023-06-14T10:08:58;94917.28;;;22.73;32.72
66486;BME280;53303;47.476;8.084;2023-06-14T10:11:27;94920.06;;;22.73;32.86
66486;BME280;53303;47.476;8.084;2023-06-14T10:13:54;94926.38;;;22.74;32.96
66486;BME280;53303;47.476;8.084;2023-06-14T10:19:01;94916.13;;;22.69;32.89
66486;BME280;53303;47.476;8.084;2023-06-14T10:24:05;94927.13;;;22.74;33.13
66486;BME280;53303;47.476;8.084;2023-06-14T10:26:32;94926.38;;;22.74;33.21
66486;BME280;53303;47.476;8.084;2023-06-14T10:29:07;94921.56;;;22.74;33.28
66486;BME280;53303;47.476;8.084;2023-06-14T10:31:50;94917.81;;;22.72;33.35
66486;BME280;53303;47.476;8.084;2023-06-14T10:34:29;94918.56;;;22.72;33.00
66486;BME280;53303;47.476;8.084;2023-06-14T10:37:05;94907.66;;;22.74;33.41
66486;BME280;53303;47.476;8.084;2023-06-14T10:39:41;94917.50;;;22.75;33.48
66486;BME280;53303;47.476;8.084;2023-06-14T10:42:11;94923.81;;;22.76;33.59
66486;BME280;53303;47.476;8.084;2023-06-14T10:47:08;94926.03;;;22.77;33.74
66486;BME280;53303;47.476;8.084;2023-06-14T10:49:49;94923.06;;;22.75;33.58
66486;BME280;53303;47.476;8.084;2023-06-14T10:52:22;94903.19;;;22.71;33.84
66486;BME280;53303;47.476;8.084;2023-06-14T10:55:07;94919.75;;;22.77;34.01
66486;BME280;53303;47.476;8.084;2023-06-14T10:57:45;94923.47;;;22.79;33.99
66486;BME280;53303;47.476;8.084;2023-06-14T11:00:12;94905.09;;;22.76;34.09
66486;BME280;53303;47.476;8.084;2023-06-14T11:02:51;94911.06;;;22.80;34.00
66486;BME280;53303;47.476;8.084;2023-06-14T11:05:29;94903.25;;;22.79;34.17
66486;BME280;53303;47.476;8.084;2023-06-14T11:10:42;94917.38;;;22.81;34.45
66486;BME280;53303;47.476;8.084;2023-06-14T11:13:08;94910.53;;;22.82;34.40
66486;BME280;53303;47.476;8.084;2023-06-14T11:15:35;94916.31;;;22.84;34.50
66486;BME280;53303;47.476;8.084;2023-06-14T11:18:05;94914.25;;;22.85;34.42
66486;BME280;53303;47.476;8.084;2023-06-14T11:20:32;94908.69;;;22.85;34.55
66486;BME280;53303;47.476;8.084;2023-06-14T11:22:58;94907.97;;;22.84;34.55
66486;BME280;53303;47.476;8.084;2023-06-14T11:25:24;94907.97;;;22.84;34.54
66486;BME280;53303;47.476;8.084;2023-06-14T11:27:50;94899.63;;;22.84;34.49
66486;BME280;53303;47.476;8.084;2023-06-14T11:30:16;94893.06;;;22.81;34.35
66486;BME280;53303;47.476;8.084;2023-06-14T11:32:42;94903.53;;;22.89;34.46
66486;BME280;53303;47.476;8.084;2023-06-14T11:35:08;94906.13;;;22.87;34.58
66486;BME280;53303;47.476;8.084;2023-06-14T11:37:36;94907.09;;;22.89;34.57
66486;BME280;53303;47.476;8.084;2023-06-14T11:40:06;94893.53;;;22.86;34.70
66486;BME280;53303;47.476;8.084;2023-06-14T11:42:36;94896.72;;;22.90;34.60
66486;BME280;53303;47.476;8.084;2023-06-14T11:45:03;94892.41;;;22.89;34.99
66486;BME280;53303;47.476;8.084;2023-06-14T11:47:34;94895.97;;;22.89;34.71
66486;BME280;53303;47.476;8.084;2023-06-14T11:50:01;94896.91;;;22.92;34.80
66486;BME280;53303;47.476;8.084;2023-06-14T11:52:26;94900.47;;;22.92;34.84
66486;BME280;53303;47.476;8.084;2023-06-14T11:54:53;94898.41;;;22.93;34.93
66486;BME280;53303;47.476;8.084;2023-06-14T11:57:19;94888.03;;;22.93;35.02
66486;BME280;53303;47.476;8.084;2023-06-14T11:59:48;94897.69;;;22.92;35.10
66486;BME280;53303;47.476;8.084;2023-06-14T12:02:16;94892.31;;;22.94;34.98
66486;BME280;53303;47.476;8.084;2023-06-14T12:04:43;94893.06;;;22.95;35.19
66486;BME280;53303;47.476;8.084;2023-06-14T12:07:11;94880.66;;;22.96;35.12
66486;BME280;53303;47.476;8.084;2023-06-14T12:12:23;94878.22;;;22.92;35.21
66486;BME280;53303;47.476;8.084;2023-06-14T12:14:51;94881.19;;;22.94;35.09
66486;BME280;53303;47.476;8.084;2023-06-14T12:17:17;94889.75;;;22.96;35.11
66486;BME280;53303;47.476;8.084;2023-06-14T12:19:44;94879.88;;;22.95;35.29
66486;BME280;53303;47.476;8.084;2023-06-14T12:22:13;94887.16;;;22.98;35.24
66486;BME280;53303;47.476;8.084;2023-06-14T12:24:44;94878.81;;;22.98;35.15
66486;BME280;53303;47.476;8.084;2023-06-14T12:27:10;94878.28;;;23.00;35.30
66486;BME280;53303;47.476;8.084;2023-06-14T12:29:41;94870.81;;;22.95;35.46
66486;BME280;53303;47.476;8.084;2023-06-14T12:32:10;94869.94;;;23.00;35.52
66486;BME280;53303;47.476;8.084;2023-06-14T12:34:36;94871.41;;;23.01;35.27
66486;BME280;53303;47.476;8.084;2023-06-14T12:37:02;94877.94;;;23.04;35.55
66486;BME280;53303;47.476;8.084;2023-06-14T12:39:31;94866.06;;;23.03;35.39
66486;BME280;53303;47.476;8.084;2023-06-14T12:41:57;94876.66;;;23.05;35.45
66486;BME280;53303;47.476;8.084;2023-06-14T12:44:23;94868.09;;;23.03;35.52
66486;BME280;53303;47.476;8.084;2023-06-14T12:46:49;94874.66;;;23.05;35.50
66486;BME280;53303;47.476;8.084;2023-06-14T12:49:16;94868.84;;;23.03;35.65
66486;BME280;53303;47.476;8.084;2023-06-14T12:51:42;94869.09;;;23.05;35.39
66486;BME280;53303;47.476;8.084;2023-06-14T12:54:07;94876.66;;;23.05;35.48
66486;BME280;53303;47.476;8.084;2023-06-14T12:56:33;94866.50;;;23.07;35.42
66486;BME280;53303;47.476;8.084;2023-06-14T12:58:58;94876.13;;;23.06;35.49
66486;BME280;53303;47.476;8.084;2023-06-14T13:01:24;94876.13;;;23.06;35.83
66486;BME280;53303;47.476;8.084;2023-06-14T13:03:50;94869.28;;;23.07;35.66
66486;BME280;53303;47.476;8.084;2023-06-14T13:06:17;94862.22;;;23.06;35.70
66486;BME280;53303;47.476;8.084;2023-06-14T13:08:42;94877.09;;;23.09;35.99
66486;BME280;53303;47.476;8.084;2023-06-14T13:11:08;94869.50;;;23.09;35.75
66486;BME280;53303;47.476;8.084;2023-06-14T13:13:34;94872.47;;;23.11;35.91
66486;BME280;53303;47.476;8.084;2023-06-14T13:15:59;94875.25;;;23.11;36.01
66486;BME280;53303;47.476;8.084;2023-06-14T13:18:27;94875.66;;;23.15;35.96